Washington, Nebraska
Current Conditions -  °F | °C
As of 4:15 PM on Sunday 25 Jan 2015 (Local Time) from KBTA Reporting Station
Overcast Overcast  
Wind Chill: 33°   Ceiling: 3000
Heat Index: 39°   Visibility: 10mi
Dew Point: 32°   Wind: 9mph
Humidity: 75%   Direction: 340°NNW
Pressure: 30.04"   Gusts: NA
Location:  41.4°N, 96.21°W
Report Text: KBTA 252215Z AUTO 34008KT 10SM OVC030 04/00 A3004 RMK AO2 T00400000
Loading
Personal Weather Stations






























Interactive Weather Map New forecast layout! Learn more

10-Day Weather Forecast

Advertisements
Track Severe Weather on mobile